Time;durP1;ratioP1;P1;durP2;ratioP2;P2;SDS_P1;SDS_P2;PMS_P1;PMS_P2;Temp;Humidity;BMP_temperature;BMP_pressure;BME280_temperature;BME280_humidity;BME280_pressure;Samples;Min_cycle;Max_cycle;Signal;HPM_P1;HPM_P2
2023/05/08 00:02:04;;;;;;;18.02;14.93;;;11.50;99.90;;;;;;5096486;28;20103;-87
2023/05/08 00:04:30;;;;;;;17.63;14.45;;;11.60;99.90;;;;;;5096533;28;20055;-87
2023/05/08 00:06:55;;;;;;;19.08;15.05;;;11.50;99.90;;;;;;5095294;28;20056;-86
2023/05/08 00:09:21;;;;;;;18.27;14.90;;;11.50;99.90;;;;;;5096541;28;20391;-87
2023/05/08 00:11:47;;;;;;;16.60;13.95;;;11.50;99.90;;;;;;5096495;28;20466;-87
2023/05/08 00:14:13;;;;;;;19.42;14.82;;;11.50;99.90;;;;;;5095041;28;20063;-87
2023/05/08 00:16:39;;;;;;;18.92;15.25;;;11.50;99.90;;;;;;5095324;28;20059;-87
2023/05/08 00:19:06;;;;;;;19.23;14.93;;;11.40;99.90;;;;;;5096264;28;20044;-87
2023/05/08 00:21:31;;;;;;;18.10;14.10;;;11.40;99.90;;;;;;5094745;28;20048;-87
2023/05/08 00:23:57;;;;;;;18.95;14.77;;;11.40;99.90;;;;;;5096293;28;20032;-87
2023/05/08 00:26:28;;;;;;;20.30;14.85;;;11.40;99.90;;;;;;5095804;28;20044;-87
2023/05/08 00:28:54;;;;;;;20.85;14.73;;;11.40;99.90;;;;;;5095081;28;20048;-87
2023/05/08 00:31:19;;;;;;;19.38;15.10;;;11.40;99.90;;;;;;5096088;28;20387;-87
2023/05/08 00:33:45;;;;;;;20.75;14.23;;;11.30;99.90;;;;;;5095035;28;20040;-87
2023/05/08 00:36:11;;;;;;;19.08;14.20;;;11.30;99.90;;;;;;5094574;28;20036;-87
2023/05/08 00:38:37;;;;;;;19.20;14.63;;;11.30;99.90;;;;;;5094502;28;20055;-87
2023/05/08 00:41:03;;;;;;;20.30;15.05;;;11.30;99.90;;;;;;5094493;28;20048;-87
2023/05/08 00:43:28;;;;;;;18.83;14.43;;;11.20;99.90;;;;;;5094761;28;20086;-87
2023/05/08 00:45:55;;;;;;;20.05;14.52;;;11.20;99.90;;;;;;5095789;28;20084;-87
2023/05/08 00:48:22;;;;;;;17.85;14.43;;;11.20;99.90;;;;;;5095688;28;20067;-87
2023/05/08 00:50:49;;;;;;;19.80;15.27;;;11.20;99.90;;;;;;5094445;28;20055;-87
2023/05/08 00:53:15;;;;;;;21.63;15.43;;;11.20;99.90;;;;;;5093716;28;20063;-87
2023/05/08 00:55:42;;;;;;;19.67;14.68;;;11.10;99.90;;;;;;5095611;28;20115;-86
2023/05/08 00:58:08;;;;;;;19.67;14.77;;;11.10;99.90;;;;;;5095278;28;20048;-86
2023/05/08 01:00:35;;;;;;;20.75;15.48;;;11.10;99.90;;;;;;5095531;28;20122;-86
2023/05/08 01:03:00;;;;;;;20.77;14.40;;;11.00;99.90;;;;;;5095264;28;20392;-86
2023/05/08 01:05:27;;;;;;;20.83;15.40;;;11.00;99.90;;;;;;5095621;28;20552;-86
2023/05/08 01:07:52;;;;;;;18.05;14.30;;;11.00;99.90;;;;;;5095147;28;20456;-87
2023/05/08 01:10:18;;;;;;;20.80;15.73;;;10.90;99.90;;;;;;5095321;28;20538;-86
2023/05/08 01:13:05;;;;;;;20.45;14.85;;;10.90;99.90;;;;;;5095300;28;20040;-86
2023/05/08 01:15:41;;;;;;;20.77;15.75;;;10.90;99.90;;;;;;5095201;28;20055;-87
2023/05/08 01:18:34;;;;;;;18.88;14.15;;;10.90;99.90;;;;;;5094061;28;20048;-86
2023/05/08 01:21:14;;;;;;;20.98;15.20;;;10.90;99.90;;;;;;5095356;28;20044;-86
2023/05/08 01:23:45;;;;;;;21.05;15.90;;;10.80;99.90;;;;;;5094121;28;20093;-87
2023/05/08 01:26:39;;;;;;;19.77;14.73;;;10.80;99.90;;;;;;5094658;28;20056;-87
2023/05/08 01:29:05;;;;;;;22.42;14.80;;;10.70;99.90;;;;;;5095000;28;20127;-87
2023/05/08 01:31:49;;;;;;;20.63;16.45;;;10.70;99.90;;;;;;5094807;28;20127;-87
2023/05/08 01:34:22;;;;;;;21.35;15.68;;;10.70;99.90;;;;;;5093817;28;20381;-87
2023/05/08 01:37:03;;;;;;;21.33;16.00;;;10.60;99.90;;;;;;5094841;28;20044;-87
2023/05/08 01:39:49;;;;;;;21.20;14.77;;;10.60;99.90;;;;;;5094670;28;20040;-87
2023/05/08 01:42:19;;;;;;;23.08;15.98;;;10.60;99.90;;;;;;5094717;28;20047;-87
2023/05/08 01:44:52;;;;;;;20.67;15.57;;;10.60;99.90;;;;;;5094635;28;20048;-87
2023/05/08 01:47:22;;;;;;;22.33;16.58;;;10.50;99.90;;;;;;5094731;28;20040;-87
2023/05/08 01:49:54;;;;;;;26.08;16.30;;;10.60;99.90;;;;;;5094683;28;20169;-87
2023/05/08 01:52:36;;;;;;;23.30;16.00;;;10.50;99.90;;;;;;5094586;28;20044;-87
2023/05/08 01:55:10;;;;;;;23.58;15.40;;;10.50;99.90;;;;;;5093007;28;20052;-86
2023/05/08 01:57:40;;;;;;;21.45;16.80;;;10.50;99.90;;;;;;5095112;28;20051;-87
2023/05/08 02:00:08;;;;;;;21.65;15.90;;;10.50;99.90;;;;;;5094217;28;20048;-87
2023/05/08 02:02:34;;;;;;;21.33;16.10;;;10.40;99.90;;;;;;5092832;28;20373;-87
2023/05/08 02:05:04;;;;;;;23.40;16.17;;;10.40;99.90;;;;;;5094333;28;20031;-87
2023/05/08 02:07:34;;;;;;;21.33;15.35;;;10.40;99.90;;;;;;5094014;28;20040;-87
2023/05/08 02:10:02;;;;;;;21.05;15.55;;;10.30;99.90;;;;;;5094274;28;20043;-87
2023/05/08 02:12:29;;;;;;;21.92;16.25;;;10.30;99.90;;;;;;5094009;28;20092;-87
2023/05/08 02:14:56;;;;;;;24.67;17.20;;;10.30;99.90;;;;;;5094066;28;20474;-87
2023/05/08 02:17:23;;;;;;;24.42;16.70;;;10.30;99.90;;;;;;5093036;28;20047;-87
2023/05/08 02:19:50;;;;;;;24.48;16.40;;;10.20;99.90;;;;;;5094067;28;20044;-86
2023/05/08 02:22:17;;;;;;;21.90;17.08;;;10.20;99.90;;;;;;5093981;28;20533;-87
2023/05/08 02:24:44;;;;;;;22.67;16.55;;;10.20;99.90;;;;;;5092512;28;20060;-87
2023/05/08 02:27:12;;;;;;;24.30;16.73;;;10.20;99.90;;;;;;5093904;28;20075;-87
2023/05/08 02:29:38;;;;;;;22.40;16.38;;;10.20;99.90;;;;;;5093999;28;20040;-87
2023/05/08 02:32:07;;;;;;;24.27;17.65;;;10.10;99.90;;;;;;5093910;28;20102;-87
2023/05/08 02:34:35;;;;;;;22.13;17.25;;;10.10;99.90;;;;;;5093790;28;20040;-87
2023/05/08 02:37:02;;;;;;;23.98;16.52;;;10.10;99.90;;;;;;5093843;28;20105;-87
2023/05/08 02:39:31;;;;;;;23.00;16.77;;;10.10;99.90;;;;;;5093906;28;20123;-87
2023/05/08 02:41:57;;;;;;;24.52;16.92;;;10.10;99.90;;;;;;5093720;28;20040;-87
2023/05/08 02:44:22;;;;;;;24.50;17.98;;;10.10;99.90;;;;;;5092435;28;20047;-87
2023/05/08 02:46:52;;;;;;;23.08;16.83;;;10.00;99.90;;;;;;5092421;28;20084;-86
2023/05/08 02:49:47;;;;;;;24.05;16.70;;;10.00;99.90;;;;;;5093636;28;20075;-87
2023/05/08 02:52:21;;;;;;;21.90;15.32;;;10.00;99.90;;;;;;5084696;28;20055;-87
2023/05/08 02:54:58;;;;;;;24.73;17.23;;;10.00;99.90;;;;;;5093731;28;20063;-87
2023/05/08 02:57:41;;;;;;;22.85;16.95;;;10.00;99.90;;;;;;5093545;28;20093;-87
2023/05/08 03:00:19;;;;;;;21.75;15.32;;;9.90;99.90;;;;;;5092304;28;20052;-87
2023/05/08 03:03:14;;;;;;;24.85;16.65;;;9.90;99.90;;;;;;5093263;28;20490;-86
2023/05/08 03:05:46;;;;;;;24.77;16.35;;;9.90;99.90;;;;;;5092558;28;20079;-87
2023/05/08 03:08:19;;;;;;;25.27;17.27;;;9.90;99.90;;;;;;5092227;28;20047;-87
2023/05/08 03:10:50;;;;;;;24.50;16.23;;;9.80;99.90;;;;;;5093515;28;20085;-87
2023/05/08 03:13:18;;;;;;;23.58;16.33;;;9.80;99.90;;;;;;5093559;28;20068;-87
2023/05/08 03:15:48;;;;;;;23.75;16.92;;;9.80;99.90;;;;;;5095972;28;20101;-86
2023/05/08 03:18:17;;;;;;;25.75;17.08;;;9.80;99.90;;;;;;5097505;28;20061;-87
2023/05/08 03:20:46;;;;;;;23.13;15.77;;;9.80;99.90;;;;;;5097422;28;20052;-87
2023/05/08 03:23:14;;;;;;;23.00;16.25;;;9.80;99.90;;;;;;5096005;28;20059;-87
2023/05/08 03:25:42;;;;;;;23.27;17.00;;;9.80;99.90;;;;;;5097071;28;20495;-87
2023/05/08 03:28:09;;;;;;;26.48;17.05;;;9.80;99.90;;;;;;5095930;28;20373;-86
2023/05/08 03:30:37;;;;;;;23.95;15.15;;;9.80;99.90;;;;;;5097264;28;20150;-86
2023/05/08 03:33:04;;;;;;;23.13;16.17;;;9.70;99.90;;;;;;5096941;28;20146;-86
2023/05/08 03:35:32;;;;;;;27.02;16.90;;;9.70;99.90;;;;;;5097190;28;20036;-86
2023/05/08 03:37:58;;;;;;;26.10;16.83;;;9.70;99.90;;;;;;5095965;28;20395;-87
2023/05/08 03:40:24;;;;;;;24.13;17.02;;;9.70;99.90;;;;;;5096773;28;20068;-86
2023/05/08 03:42:50;;;;;;;23.83;16.45;;;9.70;99.90;;;;;;5095533;28;20565;-86
2023/05/08 03:45:16;;;;;;;23.70;16.83;;;9.70;99.90;;;;;;5096492;28;20076;-86
2023/05/08 03:47:43;;;;;;;27.00;16.95;;;9.60;99.90;;;;;;5095697;28;20063;-87
2023/05/08 03:50:09;;;;;;;26.67;16.90;;;9.60;99.90;;;;;;5095685;28;20376;-87
2023/05/08 03:52:35;;;;;;;26.20;16.20;;;9.60;99.90;;;;;;5096767;28;20044;-87
2023/05/08 03:55:00;;;;;;;22.52;15.45;;;9.60;99.90;;;;;;5096674;28;20051;-87
2023/05/08 03:57:30;;;;;;;26.75;16.98;;;9.60;99.90;;;;;;5096579;28;20091;-87
2023/05/08 04:00:05;;;;;;;25.60;16.58;;;9.60;99.90;;;;;;5096594;28;20045;-87
2023/05/08 04:02:39;;;;;;;22.70;15.50;;;9.60;99.90;;;;;;5095122;28;20450;-87
2023/05/08 04:05:36;;;;;;;24.48;17.13;;;9.60;99.90;;;;;;5095145;28;20055;-87
2023/05/08 04:08:15;;;;;;;23.65;15.82;;;9.60;99.90;;;;;;5096406;28;20044;-87
2023/05/08 04:10:47;;;;;;;22.45;16.35;;;9.60;99.90;;;;;;5095076;28;20050;-87
2023/05/08 04:13:24;;;;;;;24.45;16.33;;;9.50;99.90;;;;;;5096370;28;20051;-87
2023/05/08 04:15:51;;;;;;;25.75;16.52;;;9.50;99.90;;;;;;5094911;28;20047;-86
2023/05/08 04:18:24;;;;;;;23.65;16.45;;;9.50;99.90;;;;;;5096098;28;20181;-87
2023/05/08 04:20:53;;;;;;;23.65;16.88;;;9.60;99.90;;;;;;5096068;28;20052;-86
2023/05/08 04:23:21;;;;;;;24.35;16.45;;;9.60;99.90;;;;;;5096161;28;20052;-87
2023/05/08 04:25:48;;;;;;;23.52;16.48;;;9.60;99.90;;;;;;5095322;28;20135;-87
2023/05/08 04:28:14;;;;;;;22.95;16.25;;;9.60;99.90;;;;;;5094361;28;20093;-87
2023/05/08 04:30:40;;;;;;;24.17;16.60;;;9.60;99.90;;;;;;5094946;28;20040;-86
2023/05/08 04:33:07;;;;;;;24.85;16.30;;;9.60;99.90;;;;;;5096470;28;20040;-86
2023/05/08 04:35:33;;;;;;;26.10;16.35;;;9.60;99.90;;;;;;5094789;28;20119;-86
2023/05/08 04:37:59;;;;;;;24.70;16.20;;;9.60;99.90;;;;;;5094470;28;20055;-87
2023/05/08 04:40:26;;;;;;;24.50;16.70;;;9.70;99.90;;;;;;5095891;28;20040;-87
2023/05/08 04:42:51;;;;;;;22.27;15.60;;;9.70;99.90;;;;;;5094281;28;20051;-87
2023/05/08 04:45:17;;;;;;;24.67;17.20;;;9.80;99.90;;;;;;5094849;28;20040;-87
2023/05/08 04:47:43;;;;;;;24.23;17.25;;;9.90;99.90;;;;;;5094258;28;20105;-87
2023/05/08 04:50:09;;;;;;;25.25;16.45;;;9.90;99.90;;;;;;5095400;28;20048;-87
2023/05/08 04:52:35;;;;;;;23.88;17.15;;;10.00;99.90;;;;;;5095467;28;20495;-86
2023/05/08 04:55:00;;;;;;;25.83;16.02;;;10.00;99.90;;;;;;5094357;28;20093;-87
2023/05/08 04:57:26;;;;;;;23.20;16.38;;;10.10;99.90;;;;;;5095407;28;20441;-87
2023/05/08 04:59:52;;;;;;;22.75;15.68;;;10.20;99.90;;;;;;5095438;28;20508;-87
2023/05/08 05:02:17;;;;;;;22.02;15.68;;;10.20;99.90;;;;;;5095398;28;20093;-87
2023/05/08 05:04:43;;;;;;;21.88;15.32;;;10.30;99.90;;;;;;5095303;28;20044;-87
2023/05/08 05:07:08;;;;;;;21.98;15.70;;;10.40;99.90;;;;;;5095337;28;20044;-87
2023/05/08 05:09:35;;;;;;;25.02;16.27;;;10.40;99.90;;;;;;5095274;28;20040;-87
2023/05/08 05:12:05;;;;;;;22.90;15.30;;;10.50;99.90;;;;;;5093888;28;20132;-87
2023/05/08 05:14:31;;;;;;;21.27;15.63;;;10.50;99.90;;;;;;5095019;28;20504;-87
2023/05/08 05:16:57;;;;;;;20.67;15.43;;;10.60;99.90;;;;;;5095107;28;20043;-87
2023/05/08 05:19:23;;;;;;;21.05;14.00;;;10.60;99.90;;;;;;5093807;28;20048;-87
2023/05/08 05:21:48;;;;;;;23.90;14.73;;;10.80;99.90;;;;;;5093528;28;20460;-87
2023/05/08 05:24:15;;;;;;;19.05;13.77;;;10.80;99.90;;;;;;5093425;28;20040;-87
2023/05/08 05:26:44;;;;;;;19.08;14.25;;;10.90;99.90;;;;;;5094871;28;20048;-87
2023/05/08 05:29:10;;;;;;;17.52;14.07;;;10.90;99.90;;;;;;5094823;28;20044;-87
2023/05/08 05:31:36;;;;;;;20.08;14.20;;;11.00;99.90;;;;;;5094668;28;20044;-87
2023/05/08 05:34:01;;;;;;;20.15;15.18;;;11.00;99.90;;;;;;5093440;28;20056;-87
2023/05/08 05:36:28;;;;;;;20.23;14.43;;;11.00;99.90;;;;;;5094571;28;20044;-87
2023/05/08 05:38:53;;;;;;;18.48;13.80;;;11.20;99.90;;;;;;5093352;28;20056;-87
2023/05/08 05:41:19;;;;;;;20.13;15.15;;;11.40;99.90;;;;;;5094638;28;20134;-87
2023/05/08 05:43:45;;;;;;;19.38;14.63;;;11.40;99.90;;;;;;5093410;28;20153;-87
2023/05/08 05:46:10;;;;;;;18.75;14.43;;;11.50;99.90;;;;;;5094364;28;20036;-87
2023/05/08 05:48:36;;;;;;;18.75;14.05;;;11.60;99.90;;;;;;5094228;28;20479;-87
2023/05/08 05:51:02;;;;;;;18.20;13.35;;;11.50;99.90;;;;;;5093240;28;20052;-87
2023/05/08 05:53:28;;;;;;;20.55;13.68;;;11.50;99.90;;;;;;5092917;28;20036;-87
2023/05/08 05:55:53;;;;;;;18.65;12.90;;;11.70;99.90;;;;;;5094398;28;20097;-87
2023/05/08 05:58:19;;;;;;;20.52;14.57;;;11.90;99.90;;;;;;5094440;28;20039;-87
2023/05/08 06:00:46;;;;;;;18.17;13.75;;;11.90;99.90;;;;;;5094302;28;20044;-87
2023/05/08 06:03:12;;;;;;;18.67;13.45;;;12.00;99.90;;;;;;5094200;28;20118;-87
2023/05/08 06:05:39;;;;;;;17.50;14.18;;;11.90;99.90;;;;;;5094262;28;20036;-87
2023/05/08 06:08:06;;;;;;;17.65;13.20;;;11.90;99.90;;;;;;5093082;28;20391;-87
2023/05/08 06:10:35;;;;;;;16.05;12.90;;;12.00;99.90;;;;;;5094316;28;20040;-87
2023/05/08 06:13:01;;;;;;;19.77;14.00;;;12.20;99.90;;;;;;5094239;28;20040;-87
2023/05/08 06:15:26;;;;;;;17.52;13.93;;;12.30;99.90;;;;;;5093109;28;20117;-87
2023/05/08 06:17:53;;;;;;;18.65;13.77;;;12.50;99.90;;;;;;5094170;28;20036;-87
2023/05/08 06:20:18;;;;;;;19.33;13.60;;;12.50;99.90;;;;;;5093842;28;20073;-87
2023/05/08 06:22:44;;;;;;;18.38;14.18;;;12.50;99.90;;;;;;5093895;28;20044;-87
2023/05/08 06:25:11;;;;;;;16.38;12.77;;;12.60;99.90;;;;;;5093688;28;20139;-87
2023/05/08 06:27:38;;;;;;;18.83;13.60;;;12.70;99.90;;;;;;5092498;28;20063;-87
2023/05/08 06:30:07;;;;;;;17.50;14.23;;;12.70;99.90;;;;;;5093608;28;20534;-87
2023/05/08 06:32:32;;;;;;;18.50;13.82;;;12.80;99.90;;;;;;5092619;28;20079;-87
2023/05/08 06:34:58;;;;;;;19.33;13.63;;;13.00;99.90;;;;;;5093729;28;20536;-87
2023/05/08 06:37:23;;;;;;;16.02;13.43;;;13.00;99.90;;;;;;5093530;28;20054;-87
2023/05/08 06:39:49;;;;;;;17.88;14.27;;;13.20;99.90;;;;;;5093456;28;20044;-87
2023/05/08 06:42:15;;;;;;;16.52;13.77;;;13.30;99.90;;;;;;5093713;28;20110;-87
2023/05/08 06:44:41;;;;;;;16.60;13.50;;;13.50;99.90;;;;;;5093398;28;20115;-86
2023/05/08 06:47:07;;;;;;;16.70;13.50;;;13.50;99.90;;;;;;5093853;28;20036;-87
2023/05/08 06:49:35;;;;;;;17.55;13.82;;;13.60;99.90;;;;;;5086126;28;20055;-86
2023/05/08 06:52:01;;;;;;;18.55;13.73;;;13.60;99.90;;;;;;5074773;28;20076;-87
2023/05/08 06:54:26;;;;;;;16.80;13.10;;;13.70;99.90;;;;;;5073184;28;20083;-88
2023/05/08 06:56:53;;;;;;;16.48;13.63;;;13.70;99.90;;;;;;5071982;28;20084;-87
2023/05/08 06:59:22;;;;;;;18.20;14.15;;;13.90;99.90;;;;;;5072874;28;20048;-87
2023/05/08 07:01:49;;;;;;;17.40;13.65;;;14.00;99.90;;;;;;5071663;28;20049;-87
2023/05/08 07:04:14;;;;;;;18.23;14.60;;;14.20;99.90;;;;;;5073108;28;20090;-87
2023/05/08 07:06:40;;;;;;;15.35;13.13;;;14.40;99.90;;;;;;5073268;28;20396;-86
2023/05/08 07:09:06;;;;;;;17.02;13.93;;;14.50;99.90;;;;;;5071944;28;20055;-87
2023/05/08 07:11:31;;;;;;;17.33;13.52;;;14.60;99.90;;;;;;5072735;28;20044;-84
2023/05/08 07:13:57;;;;;;;17.70;13.75;;;14.80;99.90;;;;;;5072969;28;20040;-85
2023/05/08 07:16:23;;;;;;;15.82;13.48;;;14.80;99.90;;;;;;5071812;28;20040;-88
2023/05/08 07:18:48;;;;;;;16.58;14.20;;;14.90;99.90;;;;;;5073016;28;20528;-85
2023/05/08 07:21:14;;;;;;;16.65;14.20;;;14.80;99.90;;;;;;5071526;28;20501;-86
2023/05/08 07:23:40;;;;;;;19.00;14.75;;;14.80;99.90;;;;;;5071400;28;20399;-86
2023/05/08 07:26:08;;;;;;;16.15;13.00;;;14.90;99.90;;;;;;5071090;28;20052;-86
2023/05/08 07:28:33;;;;;;;18.23;13.40;;;14.90;99.90;;;;;;5072529;28;20057;-86
2023/05/08 07:30:59;;;;;;;16.35;13.95;;;15.10;99.90;;;;;;5072782;28;20039;-87
2023/05/08 07:33:24;;;;;;;17.13;14.25;;;15.20;99.90;;;;;;5072746;28;20060;-81
2023/05/08 07:35:51;;;;;;;14.95;13.35;;;15.20;99.90;;;;;;5072722;28;20044;-87
2023/05/08 07:38:17;;;;;;;15.73;13.02;;;15.30;99.90;;;;;;5072489;28;20040;-86
2023/05/08 07:40:42;;;;;;;16.42;13.93;;;15.50;99.90;;;;;;5071106;28;20049;-86
2023/05/08 07:43:08;;;;;;;15.82;13.73;;;15.70;99.90;;;;;;5072673;28;20106;-86
2023/05/08 07:45:34;;;;;;;15.52;13.52;;;15.80;99.90;;;;;;5071501;28;20048;-86
2023/05/08 07:48:00;;;;;;;16.50;13.90;;;15.90;99.90;;;;;;5072590;28;20119;-86
2023/05/08 07:50:26;;;;;;;17.27;12.98;;;15.90;99.90;;;;;;5072308;28;20139;-86
2023/05/08 07:52:52;;;;;;;15.93;13.40;;;15.90;99.90;;;;;;5071105;28;20048;-86
2023/05/08 07:55:18;;;;;;;17.00;13.60;;;16.10;99.90;;;;;;5071492;28;20183;-86
2023/05/08 07:57:44;;;;;;;14.93;12.25;;;16.00;99.90;;;;;;5072242;28;20059;-85
2023/05/08 08:00:12;;;;;;;16.33;13.55;;;16.00;99.90;;;;;;5071120;28;20049;-85
2023/05/08 08:02:38;;;;;;;17.50;13.57;;;15.90;99.90;;;;;;5075768;28;20127;-85
2023/05/08 08:05:07;;;;;;;16.10;13.13;;;15.80;99.90;;;;;;5076047;28;20119;-85
2023/05/08 08:07:33;;;;;;;17.17;13.70;;;16.00;99.90;;;;;;5075997;28;20207;-85
2023/05/08 08:09:59;;;;;;;14.80;13.20;;;15.80;99.90;;;;;;5074383;28;20141;-85
2023/05/08 08:12:25;;;;;;;16.40;13.55;;;15.90;99.90;;;;;;5075924;28;20051;-84
2023/05/08 08:14:51;;;;;;;15.77;13.32;;;15.90;99.90;;;;;;5074416;28;20044;-85
2023/05/08 08:17:17;;;;;;;16.48;14.45;;;15.90;99.90;;;;;;5074290;28;20102;-85
2023/05/08 08:19:43;;;;;;;17.80;13.70;;;16.00;99.90;;;;;;5075862;28;20048;-85
2023/05/08 08:22:08;;;;;;;16.20;13.32;;;16.20;99.90;;;;;;5074162;28;20051;-85
2023/05/08 08:24:34;;;;;;;15.73;14.13;;;16.30;99.90;;;;;;5073922;28;20064;-85
2023/05/08 08:27:00;;;;;;;17.95;14.00;;;16.10;99.90;;;;;;5075716;28;20044;-85
2023/05/08 08:29:26;;;;;;;16.33;13.88;;;16.30;99.90;;;;;;5075320;28;20045;-85
2023/05/08 08:31:51;;;;;;;15.95;14.25;;;16.30;99.90;;;;;;5075296;28;20040;-85
2023/05/08 08:34:17;;;;;;;17.50;13.75;;;16.30;99.90;;;;;;5074080;28;20052;-85
2023/05/08 08:36:44;;;;;;;16.52;14.82;;;16.50;99.90;;;;;;5074325;28;20056;-85
2023/05/08 08:39:09;;;;;;;16.33;14.00;;;16.40;99.90;;;;;;5073795;28;20051;-84
2023/05/08 08:41:35;;;;;;;15.65;13.95;;;16.40;99.90;;;;;;5075002;28;20056;-85
2023/05/08 08:44:01;;;;;;;16.13;14.48;;;16.30;99.90;;;;;;5074985;28;20131;-85
2023/05/08 08:46:27;;;;;;;17.63;14.63;;;16.30;99.90;;;;;;5075031;28;20067;-85
2023/05/08 08:48:55;;;;;;;16.92;14.75;;;16.30;99.90;;;;;;5075201;28;20136;-85
2023/05/08 08:51:30;;;;;;;16.75;14.77;;;16.40;99.90;;;;;;5073949;28;20098;-85
2023/05/08 08:54:11;;;;;;;17.30;15.43;;;16.50;99.90;;;;;;5074805;28;20037;-84
2023/05/08 08:56:39;;;;;;;17.00;15.13;;;16.40;99.90;;;;;;5075084;28;20117;-84
2023/05/08 08:59:07;;;;;;;16.00;14.30;;;16.50;99.90;;;;;;5074784;28;20095;-85
2023/05/08 09:01:37;;;;;;;17.05;15.25;;;16.50;99.90;;;;;;5074674;28;20048;-84
2023/05/08 09:04:04;;;;;;;17.38;14.70;;;16.50;99.90;;;;;;5074565;28;20135;-83
2023/05/08 09:06:34;;;;;;;16.58;14.45;;;16.50;99.90;;;;;;5088160;28;20044;-84
2023/05/08 09:09:01;;;;;;;17.92;15.85;;;16.50;99.90;;;;;;5093788;28;20054;-84
2023/05/08 09:11:27;;;;;;;16.73;14.93;;;16.50;99.90;;;;;;5094418;28;20515;-89
2023/05/08 09:13:56;;;;;;;17.90;15.75;;;16.50;99.90;;;;;;5092778;28;20048;-87
2023/05/08 09:16:23;;;;;;;18.65;15.85;;;16.60;99.90;;;;;;5093687;28;20047;-85
2023/05/08 09:18:49;;;;;;;18.92;16.25;;;16.60;99.90;;;;;;5094681;28;20115;-85
2023/05/08 09:21:15;;;;;;;17.02;14.95;;;16.60;99.90;;;;;;5094498;28;20047;-81
2023/05/08 09:24:07;;;;;;;17.33;15.05;;;16.70;99.90;;;;;;5094757;28;20044;-86
2023/05/08 09:26:42;;;;;;;17.23;15.07;;;16.60;99.90;;;;;;5090446;28;20508;-80
2023/05/08 09:29:11;;;;;;;16.90;15.10;;;16.80;99.90;;;;;;5094581;28;20048;-83
2023/05/08 09:31:39;;;;;;;17.63;15.10;;;17.00;99.90;;;;;;5094401;28;20055;-83
2023/05/08 09:34:06;;;;;;;17.55;15.65;;;17.20;99.90;;;;;;5094550;28;20101;-83
2023/05/08 09:36:33;;;;;;;17.55;15.65;;;17.40;99.90;;;;;;5094274;28;20044;-84
2023/05/08 09:39:00;;;;;;;19.65;16.45;;;17.50;99.90;;;;;;5093035;28;20048;-83
2023/05/08 09:41:26;;;;;;;17.42;15.48;;;17.60;99.90;;;;;;5092882;28;20044;-82
2023/05/08 09:44:06;;;;;;;18.83;15.65;;;17.60;99.90;;;;;;5093001;28;20052;-84
2023/05/08 09:46:33;;;;;;;16.90;14.73;;;17.70;99.90;;;;;;5093152;28;20070;-84
2023/05/08 09:49:00;;;;;;;17.98;16.05;;;17.90;99.90;;;;;;5092869;28;20399;-84
2023/05/08 09:51:29;;;;;;;19.23;16.48;;;17.90;99.90;;;;;;5092979;28;20105;-84
2023/05/08 09:53:56;;;;;;;16.80;15.00;;;17.90;99.90;;;;;;5093901;28;20453;-82
2023/05/08 09:56:32;;;;;;;18.05;16.15;;;17.90;99.90;;;;;;5092850;28;20040;-85
2023/05/08 09:58:58;;;;;;;18.52;16.27;;;18.10;99.90;;;;;;5094106;28;20056;-85
2023/05/08 10:01:38;;;;;;;19.08;16.30;;;18.20;99.90;;;;;;5094173;28;20429;-83
2023/05/08 10:04:04;;;;;;;19.27;17.05;;;18.50;99.90;;;;;;5093941;28;20117;-86
2023/05/08 10:06:30;;;;;;;18.00;16.10;;;18.40;99.90;;;;;;5092368;28;20396;-85
2023/05/08 10:09:08;;;;;;;18.80;15.98;;;18.50;99.90;;;;;;5094030;28;20151;-86
2023/05/08 10:11:35;;;;;;;17.92;16.02;;;18.50;99.90;;;;;;5093829;28;20060;-83
2023/05/08 10:14:00;;;;;;;21.10;17.02;;;18.40;99.90;;;;;;5093981;28;20051;-83
2023/05/08 10:16:28;;;;;;;17.73;15.73;;;18.60;99.90;;;;;;5092253;28;20052;-83
2023/05/08 10:19:01;;;;;;;17.75;15.70;;;18.90;99.90;;;;;;5092228;28;20089;-83
2023/05/08 10:21:34;;;;;;;18.25;16.35;;;19.20;99.90;;;;;;5093643;28;20048;-85
2023/05/08 10:24:04;;;;;;;18.65;16.75;;;19.40;99.90;;;;;;5093197;28;20100;-84
2023/05/08 10:26:32;;;;;;;17.65;15.77;;;19.30;99.90;;;;;;5092997;28;20059;-85
2023/05/08 10:29:07;;;;;;;19.25;16.33;;;19.60;99.90;;;;;;5092201;28;20052;-84
2023/05/08 10:31:35;;;;;;;18.55;16.65;;;19.80;99.90;;;;;;5092527;28;20058;-81
2023/05/08 10:34:02;;;;;;;18.10;16.30;;;19.80;99.90;;;;;;5093550;28;20048;-84
2023/05/08 10:36:30;;;;;;;18.90;16.90;;;19.50;99.90;;;;;;5093192;28;20519;-82
2023/05/08 10:38:58;;;;;;;17.73;15.82;;;19.60;99.90;;;;;;5093527;28;20085;-86
2023/05/08 10:41:25;;;;;;;18.15;16.27;;;20.00;99.90;;;;;;5093300;28;20044;-82
2023/05/08 10:43:52;;;;;;;18.48;16.48;;;20.00;99.90;;;;;;5093423;28;20047;-84
2023/05/08 10:46:44;;;;;;;18.20;16.38;;;20.00;99.90;;;;;;5093167;28;20032;-86
2023/05/08 10:49:28;;;;;;;21.02;16.40;;;20.00;99.90;;;;;;5046685;28;20055;-87
2023/05/08 10:52:23;;;;;;;18.75;16.80;;;20.00;99.90;;;;;;5093138;28;20067;-85
2023/05/08 10:55:01;;;;;;;20.38;17.00;;;20.10;99.90;;;;;;5091345;28;20373;-86
2023/05/08 10:57:26;;;;;;;19.92;17.58;;;20.30;99.90;;;;;;5092110;28;20048;-87
2023/05/08 10:59:52;;;;;;;19.60;17.55;;;20.30;99.90;;;;;;5093048;28;20113;-85
2023/05/08 11:02:35;;;;;;;19.10;17.10;;;20.30;99.90;;;;;;5092921;28;20131;-87
2023/05/08 11:05:17;;;;;;;18.40;16.40;;;20.60;99.90;;;;;;5092946;28;20040;-86
2023/05/08 11:07:56;;;;;;;18.23;16.42;;;20.60;99.90;;;;;;5093157;28;20080;-86
2023/05/08 11:10:29;;;;;;;17.85;16.10;;;20.80;99.90;;;;;;5091989;28;20561;-86
2023/05/08 11:12:56;;;;;;;19.00;17.10;;;20.90;99.90;;;;;;5092839;28;20441;-86
2023/05/08 11:15:41;;;;;;;18.67;16.75;;;20.80;99.90;;;;;;5093137;28;20047;-85
2023/05/08 11:18:10;;;;;;;19.05;17.08;;;21.00;99.90;;;;;;5091922;28;20399;-86
2023/05/08 11:20:41;;;;;;;19.65;17.23;;;21.10;99.90;;;;;;5091909;28;20048;-86
2023/05/08 11:23:26;;;;;;;19.08;17.02;;;21.30;99.90;;;;;;5091570;28;20127;-86
2023/05/08 11:26:20;;;;;;;19.23;17.20;;;21.10;99.90;;;;;;5092788;28;20080;-86
2023/05/08 11:28:52;;;;;;;18.52;16.63;;;21.20;99.90;;;;;;5091868;28;20043;-87
2023/05/08 11:31:18;;;;;;;20.70;18.60;;;21.20;99.90;;;;;;5091808;28;20048;-87
2023/05/08 11:33:43;;;;;;;19.33;17.33;;;21.20;99.90;;;;;;5092946;28;20044;-85
2023/05/08 11:36:19;;;;;;;18.83;16.85;;;21.20;99.90;;;;;;5094181;28;20040;-85
2023/05/08 11:39:11;;;;;;;18.60;16.52;;;21.30;99.90;;;;;;5097058;28;20079;-83
2023/05/08 11:41:38;;;;;;;17.03;15.23;;;21.40;99.90;;;;;;5096671;28;20360;-82
2023/05/08 11:44:03;;;;;;;19.98;17.20;;;21.80;99.90;;;;;;5095573;28;20105;-83
2023/05/08 11:46:50;;;;;;;18.08;16.27;;;21.90;99.90;;;;;;5095528;28;20387;-80
2023/05/08 11:49:17;;;;;;;18.15;16.23;;;21.80;99.90;;;;;;5095112;28;20044;-81
2023/05/08 11:51:45;;;;;;;18.65;16.85;;;21.70;99.90;;;;;;5096586;28;20051;-80
2023/05/08 11:54:18;;;;;;;17.83;16.02;;;21.50;99.90;;;;;;5096487;28;20112;-83
2023/05/08 11:56:48;;;;;;;18.77;16.90;;;21.70;99.90;;;;;;5095789;28;20047;-81
2023/05/08 11:59:15;;;;;;;17.88;16.08;;;21.90;99.90;;;;;;5096294;28;20083;-84
2023/05/08 12:01:40;;;;;;;17.65;15.30;;;22.10;99.90;;;;;;5095496;28;20422;-81
2023/05/08 12:04:08;;;;;;;18.08;16.17;;;22.30;99.90;;;;;;5096110;28;20556;-79
2023/05/08 12:06:36;;;;;;;17.35;15.55;;;22.30;99.90;;;;;;5096206;28;20060;-81
2023/05/08 12:09:08;;;;;;;17.42;15.63;;;22.10;99.90;;;;;;5096240;28;20040;-87
2023/05/08 12:11:34;;;;;;;18.13;16.33;;;22.00;99.90;;;;;;5095989;28;20548;-80
2023/05/08 12:14:00;;;;;;;17.92;16.23;;;21.90;99.90;;;;;;5094989;28;20487;-81
2023/05/08 12:16:25;;;;;;;19.50;16.00;;;21.80;99.90;;;;;;5094730;28;20043;-81
2023/05/08 12:18:55;;;;;;;17.60;15.90;;;21.90;99.90;;;;;;5096033;28;20047;-81
2023/05/08 12:21:20;;;;;;;20.70;17.30;;;22.10;99.90;;;;;;5096123;28;20067;-83
2023/05/08 12:23:46;;;;;;;17.95;16.00;;;21.70;99.90;;;;;;5095703;28;20091;-87
2023/05/08 12:26:12;;;;;;;19.98;16.42;;;21.70;99.90;;;;;;5095655;28;20044;-84
2023/05/08 12:28:39;;;;;;;20.17;17.80;;;21.80;99.90;;;;;;5094543;28;20051;-85
2023/05/08 12:31:05;;;;;;;18.05;16.17;;;21.90;99.90;;;;;;5095568;28;20094;-83
2023/05/08 12:33:32;;;;;;;18.63;16.73;;;22.10;99.90;;;;;;5095991;28;20048;-86
2023/05/08 12:35:59;;;;;;;19.85;16.48;;;22.20;99.90;;;;;;5094295;28;20036;-85
2023/05/08 12:38:26;;;;;;;18.67;16.85;;;22.20;99.90;;;;;;5095684;28;20059;-87